Relatrios de METAR prximas

 

LPAR - Alverca, Portugal
Distance from station: S 38km
Actualizado: 11/12/2023 12:00
Few Clouds
Few Clouds
 Vento de varies
Vento: varies 4 km/h
Temperatura: 16°C
Ponto de Orvalho: 14°C
Humidade: 88%
Barmetro: 1023 hPa
Nuvens: Few Clouds
Visibilidade: 10 km
Cloud details: Few Clouds 762 m
2023/12/11 12:00 LPAR 111200Z VRB02KT 9999 FEW025 16/14 Q1023
LPPT - Lisbon/Portela, Portugal
Distance from station: S 52km
Actualizado: 11/12/2023 11:30
Few Clouds
Few Clouds
 Vento de varies
Vento: varies 7 km/h
Temperatura: 15°C
Ponto de Orvalho: 13°C
Humidade: 88%
Barmetro: 1023 hPa
Nuvens: Few Clouds
Visibilidade: 10 km
Cloud details: Few Clouds 610 m
2023/12/11 11:30 LPPT 111130Z VRB04KT 9999 FEW020 15/13 Q1023
 
LPST - Sintra/Granja (a, Portugal
Distance from station: SSO 53km
Actualizado: 11/12/2023 12:00
Muito Nublado
Muito Nublado
 Vento de S
Vento: S 20 km/h
Temperatura: 17°C
Ponto de Orvalho: 15°C
Humidade: 88%
Barmetro: 1022 hPa
Nuvens: Muito Nublado
Visibilidade: 10 km
Cloud details: Muito Nublado 671 m
2023/12/11 12:00 LPST 111200Z 18011KT 9999 BKN022 17/15 Q1022
LPMT - Montijo (por-Afb, Portugal
Distance from station: S 59km
Actualizado: 11/12/2023 12:00
Few Clouds
Few Clouds
 Vento de ESE
Vento: ESE 7 km/h
Temperatura: 16°C
Ponto de Orvalho: 13°C
Humidade: 83%
Barmetro: 1023 hPa
Nuvens: Few Clouds
Visibilidade: 10 km
Cloud details: Few Clouds 701 m
2023/12/11 12:00 LPMT 111200Z 11004KT 9999 FEW023 16/13 Q1023
 
LPCS - Cascais, Portugal
Distance from station: SSO 63km
Actualizado: 11/12/2023 12:00
Muito Nublado
Muito Nublado
 Vento de SE
Vento: SE 13 km/h
Temperatura: 17°C
Ponto de Orvalho: 15°C
Humidade: 88%
Barmetro: 1022 hPa
Nuvens: Muito Nublado
Visibilidade: 10 km
Cloud details: Parc. Nublado 305 m
Muito Nublado 396 m
2023/12/11 12:00 LPCS 111200Z 14007KT 9999 SCT010 BKN013 17/15 Q1022
LPMR - Monte Real(Por-A, Portugal
Distance from station: N 67km
Actualizado: 11/12/2023 12:00
Few Clouds
Few Clouds
 Vento de SE
Vento: SE 20 km/h
Temperatura: 17°C
Ponto de Orvalho: 13°C
Humidade: 77%
Barmetro: 1022 hPa
Nuvens: Few Clouds
Visibilidade: 10 km
Cloud details: Few Clouds 1067 m
2023/12/11 12:00 LPMR 111200Z 13011KT 9999 FEW035 17/13 Q1022